sensor_id;sensor_type;location;lat;lon;timestamp;temperature;humidity
69436;SHT31;56625;54.322;18.582;2023-05-20T00:02:28;10.87;74.18
69436;SHT31;56625;54.322;18.582;2023-05-20T00:04:56;10.85;74.27
69436;SHT31;56625;54.322;18.582;2023-05-20T00:07:24;10.83;74.32
69436;SHT31;56625;54.322;18.582;2023-05-20T00:09:52;10.81;74.39
69436;SHT31;56625;54.322;18.582;2023-05-20T00:12:20;10.79;74.54
69436;SHT31;56625;54.322;18.582;2023-05-20T00:14:48;10.77;74.69
69436;SHT31;56625;54.322;18.582;2023-05-20T00:17:16;10.76;74.77
69436;SHT31;56625;54.322;18.582;2023-05-20T00:19:44;10.77;74.86
69436;SHT31;56625;54.322;18.582;2023-05-20T00:22:12;10.78;75.00
69436;SHT31;56625;54.322;18.582;2023-05-20T00:24:40;10.79;74.88
69436;SHT31;56625;54.322;18.582;2023-05-20T00:27:08;10.80;74.89
69436;SHT31;56625;54.322;18.582;2023-05-20T00:29:36;10.81;74.81
69436;SHT31;56625;54.322;18.582;2023-05-20T00:32:04;10.81;74.90
69436;SHT31;56625;54.322;18.582;2023-05-20T00:34:32;10.82;74.92
69436;SHT31;56625;54.322;18.582;2023-05-20T00:37:00;10.82;74.82
69436;SHT31;56625;54.322;18.582;2023-05-20T00:39:28;10.81;74.87
69436;SHT31;56625;54.322;18.582;2023-05-20T00:41:56;10.79;74.60
69436;SHT31;56625;54.322;18.582;2023-05-20T00:44:27;10.78;74.47
69436;SHT31;56625;54.322;18.582;2023-05-20T00:46:55;10.78;74.58
69436;SHT31;56625;54.322;18.582;2023-05-20T00:49:27;10.78;74.78
69436;SHT31;56625;54.322;18.582;2023-05-20T00:51:55;10.79;74.80
69436;SHT31;56625;54.322;18.582;2023-05-20T00:54:22;10.80;74.86
69436;SHT31;56625;54.322;18.582;2023-05-20T00:56:50;10.80;74.69
69436;SHT31;56625;54.322;18.582;2023-05-20T00:59:18;10.80;74.95
69436;SHT31;56625;54.322;18.582;2023-05-20T01:01:46;10.81;75.02
69436;SHT31;56625;54.322;18.582;2023-05-20T01:04:14;10.82;74.79
69436;SHT31;56625;54.322;18.582;2023-05-20T01:06:42;10.83;74.40
69436;SHT31;56625;54.322;18.582;2023-05-20T01:09:12;10.85;74.17
69436;SHT31;56625;54.322;18.582;2023-05-20T01:11:43;10.84;74.18
69436;SHT31;56625;54.322;18.582;2023-05-20T01:14:17;10.85;74.01
69436;SHT31;56625;54.322;18.582;2023-05-20T01:16:49;10.85;74.03
69436;SHT31;56625;54.322;18.582;2023-05-20T01:22:26;10.87;73.81
69436;SHT31;56625;54.322;18.582;2023-05-20T01:24:55;10.89;73.92
69436;SHT31;56625;54.322;18.582;2023-05-20T01:27:26;10.89;73.93
69436;SHT31;56625;54.322;18.582;2023-05-20T01:29:56;10.90;73.86
69436;SHT31;56625;54.322;18.582;2023-05-20T01:32:27;10.89;73.62
69436;SHT31;56625;54.322;18.582;2023-05-20T01:35:04;10.90;73.07
69436;SHT31;56625;54.322;18.582;2023-05-20T01:37:37;10.90;72.86
69436;SHT31;56625;54.322;18.582;2023-05-20T01:40:07;10.91;73.00
69436;SHT31;56625;54.322;18.582;2023-05-20T01:42:41;10.93;72.94
69436;SHT31;56625;54.322;18.582;2023-05-20T01:45:12;10.94;72.99
69436;SHT31;56625;54.322;18.582;2023-05-20T01:47:40;10.98;72.96
69436;SHT31;56625;54.322;18.582;2023-05-20T01:50:08;11.00;72.72
69436;SHT31;56625;54.322;18.582;2023-05-20T01:52:36;11.03;72.70
69436;SHT31;56625;54.322;18.582;2023-05-20T01:55:04;11.03;72.50
69436;SHT31;56625;54.322;18.582;2023-05-20T01:57:32;11.04;72.40
69436;SHT31;56625;54.322;18.582;2023-05-20T02:00:00;11.05;72.54
69436;SHT31;56625;54.322;18.582;2023-05-20T02:02:30;11.06;72.50
69436;SHT31;56625;54.322;18.582;2023-05-20T02:04:58;11.07;72.54
69436;SHT31;56625;54.322;18.582;2023-05-20T02:07:26;11.08;72.72
69436;SHT31;56625;54.322;18.582;2023-05-20T02:09:53;11.08;72.76
69436;SHT31;56625;54.322;18.582;2023-05-20T02:12:21;11.07;72.61
69436;SHT31;56625;54.322;18.582;2023-05-20T02:14:52;11.08;72.34
69436;SHT31;56625;54.322;18.582;2023-05-20T02:17:21;11.08;72.11
69436;SHT31;56625;54.322;18.582;2023-05-20T02:19:49;11.09;71.97
69436;SHT31;56625;54.322;18.582;2023-05-20T02:22:17;11.09;72.08
69436;SHT31;56625;54.322;18.582;2023-05-20T02:24:45;11.10;72.13
69436;SHT31;56625;54.322;18.582;2023-05-20T02:27:13;11.10;72.22
69436;SHT31;56625;54.322;18.582;2023-05-20T02:29:41;11.09;72.32
69436;SHT31;56625;54.322;18.582;2023-05-20T02:32:10;11.09;72.47
69436;SHT31;56625;54.322;18.582;2023-05-20T02:34:39;11.07;72.53
69436;SHT31;56625;54.322;18.582;2023-05-20T02:37:06;11.06;72.58
69436;SHT31;56625;54.322;18.582;2023-05-20T02:39:34;11.05;72.74
69436;SHT31;56625;54.322;18.582;2023-05-20T02:42:02;11.04;72.81
69436;SHT31;56625;54.322;18.582;2023-05-20T02:44:31;11.03;72.87
69436;SHT31;56625;54.322;18.582;2023-05-20T02:46:59;11.03;72.87
69436;SHT31;56625;54.322;18.582;2023-05-20T02:49:27;11.03;72.90
69436;SHT31;56625;54.322;18.582;2023-05-20T02:51:55;11.05;73.00
69436;SHT31;56625;54.322;18.582;2023-05-20T02:54:22;11.06;73.00
69436;SHT31;56625;54.322;18.582;2023-05-20T02:56:50;11.08;72.95
69436;SHT31;56625;54.322;18.582;2023-05-20T02:59:18;11.08;72.98
69436;SHT31;56625;54.322;18.582;2023-05-20T03:01:46;11.09;72.99
69436;SHT31;56625;54.322;18.582;2023-05-20T03:04:14;11.10;73.00
69436;SHT31;56625;54.322;18.582;2023-05-20T03:06:42;11.11;73.02
69436;SHT31;56625;54.322;18.582;2023-05-20T03:09:11;11.13;73.09
69436;SHT31;56625;54.322;18.582;2023-05-20T03:11:39;11.17;73.07
69436;SHT31;56625;54.322;18.582;2023-05-20T03:14:07;11.19;72.94
69436;SHT31;56625;54.322;18.582;2023-05-20T03:16:35;11.22;72.83
69436;SHT31;56625;54.322;18.582;2023-05-20T03:19:03;11.24;72.80
69436;SHT31;56625;54.322;18.582;2023-05-20T03:21:31;11.28;72.80
69436;SHT31;56625;54.322;18.582;2023-05-20T03:23:59;11.32;72.79
69436;SHT31;56625;54.322;18.582;2023-05-20T03:26:27;11.34;72.69
69436;SHT31;56625;54.322;18.582;2023-05-20T03:28:55;11.36;72.62
69436;SHT31;56625;54.322;18.582;2023-05-20T03:31:22;11.40;72.65
69436;SHT31;56625;54.322;18.582;2023-05-20T03:33:50;11.40;72.56
69436;SHT31;56625;54.322;18.582;2023-05-20T03:36:18;11.41;72.60
69436;SHT31;56625;54.322;18.582;2023-05-20T03:38:46;11.41;72.51
69436;SHT31;56625;54.322;18.582;2023-05-20T03:41:14;11.45;72.50
69436;SHT31;56625;54.322;18.582;2023-05-20T03:43:42;11.49;72.51
69436;SHT31;56625;54.322;18.582;2023-05-20T03:46:10;11.56;72.46
69436;SHT31;56625;54.322;18.582;2023-05-20T03:48:38;11.61;72.07
69436;SHT31;56625;54.322;18.582;2023-05-20T03:51:07;11.62;71.99
69436;SHT31;56625;54.322;18.582;2023-05-20T03:53:35;11.66;72.00
69436;SHT31;56625;54.322;18.582;2023-05-20T03:56:03;11.68;71.97
69436;SHT31;56625;54.322;18.582;2023-05-20T03:58:31;11.71;71.86
69436;SHT31;56625;54.322;18.582;2023-05-20T04:00:59;11.73;71.77
69436;SHT31;56625;54.322;18.582;2023-05-20T04:03:27;11.72;71.87
69436;SHT31;56625;54.322;18.582;2023-05-20T04:05:55;11.71;71.85
69436;SHT31;56625;54.322;18.582;2023-05-20T04:08:23;11.72;71.76
69436;SHT31;56625;54.322;18.582;2023-05-20T04:10:55;11.72;71.52
69436;SHT31;56625;54.322;18.582;2023-05-20T04:13:24;11.73;71.48
69436;SHT31;56625;54.322;18.582;2023-05-20T04:15:52;11.75;71.32
69436;SHT31;56625;54.322;18.582;2023-05-20T04:18:20;11.77;71.46
69436;SHT31;56625;54.322;18.582;2023-05-20T04:20:48;11.82;71.61
69436;SHT31;56625;54.322;18.582;2023-05-20T04:23:16;11.86;71.57
69436;SHT31;56625;54.322;18.582;2023-05-20T04:25:44;11.90;71.53
69436;SHT31;56625;54.322;18.582;2023-05-20T04:28:12;11.94;71.46
69436;SHT31;56625;54.322;18.582;2023-05-20T04:30:42;11.98;71.46
69436;SHT31;56625;54.322;18.582;2023-05-20T04:33:11;12.01;71.53
69436;SHT31;56625;54.322;18.582;2023-05-20T04:35:39;12.03;71.70
69436;SHT31;56625;54.322;18.582;2023-05-20T04:38:08;12.05;71.85
69436;SHT31;56625;54.322;18.582;2023-05-20T04:40:36;12.11;71.89
69436;SHT31;56625;54.322;18.582;2023-05-20T04:43:04;12.15;71.72
69436;SHT31;56625;54.322;18.582;2023-05-20T04:45:32;12.17;71.88
69436;SHT31;56625;54.322;18.582;2023-05-20T04:48:00;12.15;72.11
69436;SHT31;56625;54.322;18.582;2023-05-20T04:50:28;12.13;72.30
69436;SHT31;56625;54.322;18.582;2023-05-20T04:52:56;12.14;72.51
69436;SHT31;56625;54.322;18.582;2023-05-20T04:55:25;12.14;72.48
69436;SHT31;56625;54.322;18.582;2023-05-20T04:57:54;12.16;72.42
69436;SHT31;56625;54.322;18.582;2023-05-20T05:00:21;12.19;72.38
69436;SHT31;56625;54.322;18.582;2023-05-20T05:02:50;12.21;72.48
69436;SHT31;56625;54.322;18.582;2023-05-20T05:05:18;12.26;72.46
69436;SHT31;56625;54.322;18.582;2023-05-20T05:07:46;12.30;72.43
69436;SHT31;56625;54.322;18.582;2023-05-20T05:10:14;12.34;72.45
69436;SHT31;56625;54.322;18.582;2023-05-20T05:12:42;12.37;72.24
69436;SHT31;56625;54.322;18.582;2023-05-20T05:15:10;12.40;72.29
69436;SHT31;56625;54.322;18.582;2023-05-20T05:17:38;12.46;72.30
69436;SHT31;56625;54.322;18.582;2023-05-20T05:20:06;12.52;72.13
69436;SHT31;56625;54.322;18.582;2023-05-20T05:22:36;12.55;72.01
69436;SHT31;56625;54.322;18.582;2023-05-20T05:25:06;12.62;72.09
69436;SHT31;56625;54.322;18.582;2023-05-20T05:27:35;12.68;72.04
69436;SHT31;56625;54.322;18.582;2023-05-20T05:30:05;12.75;71.80
69436;SHT31;56625;54.322;18.582;2023-05-20T05:32:35;12.78;71.70
69436;SHT31;56625;54.322;18.582;2023-05-20T05:35:04;12.80;71.67
69436;SHT31;56625;54.322;18.582;2023-05-20T05:37:34;12.81;71.65
69436;SHT31;56625;54.322;18.582;2023-05-20T05:40:05;12.79;71.74
69436;SHT31;56625;54.322;18.582;2023-05-20T05:42:35;12.80;72.00
69436;SHT31;56625;54.322;18.582;2023-05-20T05:45:03;12.84;72.03
69436;SHT31;56625;54.322;18.582;2023-05-20T05:47:31;12.85;72.00
69436;SHT31;56625;54.322;18.582;2023-05-20T05:49:59;12.86;72.08
69436;SHT31;56625;54.322;18.582;2023-05-20T05:52:27;12.88;72.01
69436;SHT31;56625;54.322;18.582;2023-05-20T05:54:55;12.94;72.22
69436;SHT31;56625;54.322;18.582;2023-05-20T05:57:23;13.01;72.05
69436;SHT31;56625;54.322;18.582;2023-05-20T05:59:51;13.04;71.94
69436;SHT31;56625;54.322;18.582;2023-05-20T06:02:20;13.07;71.80
69436;SHT31;56625;54.322;18.582;2023-05-20T06:04:49;13.09;71.78
69436;SHT31;56625;54.322;18.582;2023-05-20T06:07:17;13.09;71.86
69436;SHT31;56625;54.322;18.582;2023-05-20T06:09:45;13.06;71.90
69436;SHT31;56625;54.322;18.582;2023-05-20T06:12:13;13.03;72.07
69436;SHT31;56625;54.322;18.582;2023-05-20T06:14:41;13.04;72.30
69436;SHT31;56625;54.322;18.582;2023-05-20T06:17:09;13.05;72.43
69436;SHT31;56625;54.322;18.582;2023-05-20T06:19:37;13.08;72.53
69436;SHT31;56625;54.322;18.582;2023-05-20T06:22:05;13.10;72.38
69436;SHT31;56625;54.322;18.582;2023-05-20T06:24:33;13.14;72.49
69436;SHT31;56625;54.322;18.582;2023-05-20T06:27:01;13.22;72.47
69436;SHT31;56625;54.322;18.582;2023-05-20T06:29:29;13.32;72.44
69436;SHT31;56625;54.322;18.582;2023-05-20T06:31:58;13.40;72.20
69436;SHT31;56625;54.322;18.582;2023-05-20T06:34:26;13.47;72.16
69436;SHT31;56625;54.322;18.582;2023-05-20T06:36:54;13.53;71.83
69436;SHT31;56625;54.322;18.582;2023-05-20T06:39:22;13.57;71.80
69436;SHT31;56625;54.322;18.582;2023-05-20T06:41:50;13.65;71.97
69436;SHT31;56625;54.322;18.582;2023-05-20T06:44:21;13.79;71.69
69436;SHT31;56625;54.322;18.582;2023-05-20T06:46:49;13.86;70.84
69436;SHT31;56625;54.322;18.582;2023-05-20T06:49:17;13.91;70.67
69436;SHT31;56625;54.322;18.582;2023-05-20T06:51:45;14.00;70.70
69436;SHT31;56625;54.322;18.582;2023-05-20T06:54:13;14.14;70.37
69436;SHT31;56625;54.322;18.582;2023-05-20T06:56:41;14.20;70.21
69436;SHT31;56625;54.322;18.582;2023-05-20T06:59:09;14.32;70.52
69436;SHT31;56625;54.322;18.582;2023-05-20T07:01:37;14.47;70.02
69436;SHT31;56625;54.322;18.582;2023-05-20T07:04:05;14.61;69.60
69436;SHT31;56625;54.322;18.582;2023-05-20T07:06:33;14.70;69.31
69436;SHT31;56625;54.322;18.582;2023-05-20T07:09:01;14.81;69.21
69436;SHT31;56625;54.322;18.582;2023-05-20T07:11:29;14.93;69.03
69436;SHT31;56625;54.322;18.582;2023-05-20T07:13:57;15.09;68.74
69436;SHT31;56625;54.322;18.582;2023-05-20T07:16:25;15.21;68.00
69436;SHT31;56625;54.322;18.582;2023-05-20T07:18:53;15.30;67.31
69436;SHT31;56625;54.322;18.582;2023-05-20T07:21:21;15.38;67.58
69436;SHT31;56625;54.322;18.582;2023-05-20T07:23:49;15.51;67.45
69436;SHT31;56625;54.322;18.582;2023-05-20T07:26:17;15.60;66.92
69436;SHT31;56625;54.322;18.582;2023-05-20T07:28:45;15.63;66.62
69436;SHT31;56625;54.322;18.582;2023-05-20T07:31:13;15.65;66.27
69436;SHT31;56625;54.322;18.582;2023-05-20T07:33:41;15.61;65.65
69436;SHT31;56625;54.322;18.582;2023-05-20T07:36:09;15.56;66.23
69436;SHT31;56625;54.322;18.582;2023-05-20T07:38:37;15.56;66.40
69436;SHT31;56625;54.322;18.582;2023-05-20T07:41:07;15.57;66.46
69436;SHT31;56625;54.322;18.582;2023-05-20T07:43:35;15.58;66.04
69436;SHT31;56625;54.322;18.582;2023-05-20T07:46:03;15.59;66.30
69436;SHT31;56625;54.322;18.582;2023-05-20T07:48:31;15.65;66.33
69436;SHT31;56625;54.322;18.582;2023-05-20T07:50:59;15.77;66.26
69436;SHT31;56625;54.322;18.582;2023-05-20T07:53:27;15.88;65.70
69436;SHT31;56625;54.322;18.582;2023-05-20T07:55:55;15.99;65.41
69436;SHT31;56625;54.322;18.582;2023-05-20T07:58:23;16.09;64.81
69436;SHT31;56625;54.322;18.582;2023-05-20T08:00:51;16.03;64.08
69436;SHT31;56625;54.322;18.582;2023-05-20T08:03:19;16.04;64.34
69436;SHT31;56625;54.322;18.582;2023-05-20T08:05:49;16.12;64.12
69436;SHT31;56625;54.322;18.582;2023-05-20T08:08:17;16.24;63.94
69436;SHT31;56625;54.322;18.582;2023-05-20T08:10:45;16.37;63.16
69436;SHT31;56625;54.322;18.582;2023-05-20T08:13:13;16.46;62.45
69436;SHT31;56625;54.322;18.582;2023-05-20T08:15:40;16.48;62.43
69436;SHT31;56625;54.322;18.582;2023-05-20T08:18:08;16.53;62.48
69436;SHT31;56625;54.322;18.582;2023-05-20T08:20:37;16.52;61.84
69436;SHT31;56625;54.322;18.582;2023-05-20T08:23:05;16.50;62.27
69436;SHT31;56625;54.322;18.582;2023-05-20T08:25:33;16.54;62.06
69436;SHT31;56625;54.322;18.582;2023-05-20T08:28:01;16.44;61.39
69436;SHT31;56625;54.322;18.582;2023-05-20T08:30:33;16.33;61.26
69436;SHT31;56625;54.322;18.582;2023-05-20T08:33:01;16.26;61.84
69436;SHT31;56625;54.322;18.582;2023-05-20T08:35:29;16.30;62.10
69436;SHT31;56625;54.322;18.582;2023-05-20T08:37:57;16.37;62.53
69436;SHT31;56625;54.322;18.582;2023-05-20T08:40:25;16.47;62.34
69436;SHT31;56625;54.322;18.582;2023-05-20T08:42:54;16.54;61.96
69436;SHT31;56625;54.322;18.582;2023-05-20T08:45:22;16.58;61.86
69436;SHT31;56625;54.322;18.582;2023-05-20T08:47:54;16.62;61.43
69436;SHT31;56625;54.322;18.582;2023-05-20T08:50:22;16.61;61.06
69436;SHT31;56625;54.322;18.582;2023-05-20T08:52:50;16.59;61.43
69436;SHT31;56625;54.322;18.582;2023-05-20T08:55:34;16.54;61.17
69436;SHT31;56625;54.322;18.582;2023-05-20T08:58:09;16.49;61.51
69436;SHT31;56625;54.322;18.582;2023-05-20T09:00:37;16.53;61.70
69436;SHT31;56625;54.322;18.582;2023-05-20T09:03:05;16.57;61.32
69436;SHT31;56625;54.322;18.582;2023-05-20T09:05:33;16.55;60.93
69436;SHT31;56625;54.322;18.582;2023-05-20T09:08:11;16.57;60.85
69436;SHT31;56625;54.322;18.582;2023-05-20T09:10:40;16.48;60.87
69436;SHT31;56625;54.322;18.582;2023-05-20T09:13:09;16.48;61.59
69436;SHT31;56625;54.322;18.582;2023-05-20T09:15:38;16.52;61.65
69436;SHT31;56625;54.322;18.582;2023-05-20T09:18:06;16.58;61.78
69436;SHT31;56625;54.322;18.582;2023-05-20T09:20:35;16.66;61.55
69436;SHT31;56625;54.322;18.582;2023-05-20T09:23:06;16.69;61.23
69436;SHT31;56625;54.322;18.582;2023-05-20T09:25:36;16.70;61.23
69436;SHT31;56625;54.322;18.582;2023-05-20T09:28:06;16.71;60.65
69436;SHT31;56625;54.322;18.582;2023-05-20T09:30:35;16.72;60.25
69436;SHT31;56625;54.322;18.582;2023-05-20T09:33:03;16.73;60.68
69436;SHT31;56625;54.322;18.582;2023-05-20T09:35:34;16.85;60.69
69436;SHT31;56625;54.322;18.582;2023-05-20T09:38:04;17.01;60.63
69436;SHT31;56625;54.322;18.582;2023-05-20T09:40:36;17.12;59.71
69436;SHT31;56625;54.322;18.582;2023-05-20T09:43:05;17.13;59.43
69436;SHT31;56625;54.322;18.582;2023-05-20T09:45:34;17.24;59.81
69436;SHT31;56625;54.322;18.582;2023-05-20T09:48:03;17.39;59.15
69436;SHT31;56625;54.322;18.582;2023-05-20T09:50:32;17.38;58.32
69436;SHT31;56625;54.322;18.582;2023-05-20T09:53:01;17.24;58.31
69436;SHT31;56625;54.322;18.582;2023-05-20T09:55:31;17.08;58.86
69436;SHT31;56625;54.322;18.582;2023-05-20T09:58:01;16.91;59.30
69436;SHT31;56625;54.322;18.582;2023-05-20T10:00:29;16.79;59.26
69436;SHT31;56625;54.322;18.582;2023-05-20T10:02:58;16.68;59.35
69436;SHT31;56625;54.322;18.582;2023-05-20T10:05:37;16.54;59.54
69436;SHT31;56625;54.322;18.582;2023-05-20T10:11:46;16.24;60.67
69436;SHT31;56625;54.322;18.582;2023-05-20T10:14:40;16.11;61.14
69436;SHT31;56625;54.322;18.582;2023-05-20T10:17:24;15.98;61.97
69436;SHT31;56625;54.322;18.582;2023-05-20T10:20:13;15.85;62.44
69436;SHT31;56625;54.322;18.582;2023-05-20T10:22:42;15.76;62.97
69436;SHT31;56625;54.322;18.582;2023-05-20T10:25:12;15.59;63.05
69436;SHT31;56625;54.322;18.582;2023-05-20T10:28:06;15.44;63.66
69436;SHT31;56625;54.322;18.582;2023-05-20T10:30:35;15.30;64.28
69436;SHT31;56625;54.322;18.582;2023-05-20T10:33:04;15.18;64.79
69436;SHT31;56625;54.322;18.582;2023-05-20T10:35:34;15.04;65.19
69436;SHT31;56625;54.322;18.582;2023-05-20T10:38:09;14.91;65.42
69436;SHT31;56625;54.322;18.582;2023-05-20T10:40:38;14.84;65.67
69436;SHT31;56625;54.322;18.582;2023-05-20T10:43:08;14.80;65.78
69436;SHT31;56625;54.322;18.582;2023-05-20T10:50:54;14.68;67.20
69436;SHT31;56625;54.322;18.582;2023-05-20T10:53:24;14.66;67.34
69436;SHT31;56625;54.322;18.582;2023-05-20T10:56:00;14.67;67.07
69436;SHT31;56625;54.322;18.582;2023-05-20T10:58:35;14.71;67.04
69436;SHT31;56625;54.322;18.582;2023-05-20T11:01:05;14.83;67.07
69436;SHT31;56625;54.322;18.582;2023-05-20T11:03:34;15.00;66.72
69436;SHT31;56625;54.322;18.582;2023-05-20T11:06:09;15.23;66.37
69436;SHT31;56625;54.322;18.582;2023-05-20T11:08:44;15.53;65.64
69436;SHT31;56625;54.322;18.582;2023-05-20T11:11:13;15.77;64.34
69436;SHT31;56625;54.322;18.582;2023-05-20T11:13:42;16.08;64.08
69436;SHT31;56625;54.322;18.582;2023-05-20T11:16:10;16.28;63.34
69436;SHT31;56625;54.322;18.582;2023-05-20T11:18:39;16.38;62.41
69436;SHT31;56625;54.322;18.582;2023-05-20T11:21:07;16.42;61.44
69436;SHT31;56625;54.322;18.582;2023-05-20T11:23:36;16.36;61.95
69436;SHT31;56625;54.322;18.582;2023-05-20T11:26:07;16.28;61.88
69436;SHT31;56625;54.322;18.582;2023-05-20T11:28:35;16.32;62.31
69436;SHT31;56625;54.322;18.582;2023-05-20T11:31:03;16.39;62.16
69436;SHT31;56625;54.322;18.582;2023-05-20T11:33:32;16.50;62.27
69436;SHT31;56625;54.322;18.582;2023-05-20T11:36:00;16.72;61.63
69436;SHT31;56625;54.322;18.582;2023-05-20T11:38:31;16.95;61.30
69436;SHT31;56625;54.322;18.582;2023-05-20T11:40:59;17.13;59.94
69436;SHT31;56625;54.322;18.582;2023-05-20T11:43:27;17.34;60.21
69436;SHT31;56625;54.322;18.582;2023-05-20T11:45:56;17.46;59.81
69436;SHT31;56625;54.322;18.582;2023-05-20T11:48:27;17.49;59.49
69436;SHT31;56625;54.322;18.582;2023-05-20T11:50:55;17.51;58.11
69436;SHT31;56625;54.322;18.582;2023-05-20T11:53:25;17.47;55.50
69436;SHT31;56625;54.322;18.582;2023-05-20T11:55:53;17.39;55.32
69436;SHT31;56625;54.322;18.582;2023-05-20T11:58:25;17.26;56.06
69436;SHT31;56625;54.322;18.582;2023-05-20T12:00:57;17.18;56.28
69436;SHT31;56625;54.322;18.582;2023-05-20T12:03:45;17.17;55.95
69436;SHT31;56625;54.322;18.582;2023-05-20T12:06:13;17.23;56.49
69436;SHT31;56625;54.322;18.582;2023-05-20T12:08:44;17.22;57.51
69436;SHT31;56625;54.322;18.582;2023-05-20T12:11:13;17.22;57.45
69436;SHT31;56625;54.322;18.582;2023-05-20T12:13:41;17.13;57.55
69436;SHT31;56625;54.322;18.582;2023-05-20T12:16:08;16.97;57.91
69436;SHT31;56625;54.322;18.582;2023-05-20T12:18:37;16.84;58.01
69436;SHT31;56625;54.322;18.582;2023-05-20T12:21:05;16.67;58.31
69436;SHT31;56625;54.322;18.582;2023-05-20T12:23:33;16.52;58.58
69436;SHT31;56625;54.322;18.582;2023-05-20T12:26:01;16.39;58.76
69436;SHT31;56625;54.322;18.582;2023-05-20T12:28:29;16.26;59.62
69436;SHT31;56625;54.322;18.582;2023-05-20T12:30:58;16.16;59.81
69436;SHT31;56625;54.322;18.582;2023-05-20T12:33:26;16.07;60.21
69436;SHT31;56625;54.322;18.582;2023-05-20T12:35:54;16.03;60.09
69436;SHT31;56625;54.322;18.582;2023-05-20T12:38:22;15.97;59.67
69436;SHT31;56625;54.322;18.582;2023-05-20T12:40:50;15.95;60.14
69436;SHT31;56625;54.322;18.582;2023-05-20T12:43:20;16.00;60.40
69436;SHT31;56625;54.322;18.582;2023-05-20T12:45:49;15.99;60.26
69436;SHT31;56625;54.322;18.582;2023-05-20T12:48:18;15.95;60.35
69436;SHT31;56625;54.322;18.582;2023-05-20T12:50:46;15.91;60.64
69436;SHT31;56625;54.322;18.582;2023-05-20T12:53:14;15.90;60.64
69436;SHT31;56625;54.322;18.582;2023-05-20T12:55:42;15.92;60.59
69436;SHT31;56625;54.322;18.582;2023-05-20T12:58:10;15.93;60.48
69436;SHT31;56625;54.322;18.582;2023-05-20T13:00:38;15.93;60.68
69436;SHT31;56625;54.322;18.582;2023-05-20T13:03:06;15.94;61.33
69436;SHT31;56625;54.322;18.582;2023-05-20T13:05:34;15.96;61.67
69436;SHT31;56625;54.322;18.582;2023-05-20T13:08:02;15.98;61.62
69436;SHT31;56625;54.322;18.582;2023-05-20T13:10:30;16.03;61.68
69436;SHT31;56625;54.322;18.582;2023-05-20T13:12:58;16.07;61.71
69436;SHT31;56625;54.322;18.582;2023-05-20T13:15:26;16.09;61.72
69436;SHT31;56625;54.322;18.582;2023-05-20T13:17:54;16.11;61.90
69436;SHT31;56625;54.322;18.582;2023-05-20T13:20:22;16.12;61.99
69436;SHT31;56625;54.322;18.582;2023-05-20T13:22:50;16.19;62.29
69436;SHT31;56625;54.322;18.582;2023-05-20T13:25:18;16.29;62.20
69436;SHT31;56625;54.322;18.582;2023-05-20T13:27:46;16.40;61.99
69436;SHT31;56625;54.322;18.582;2023-05-20T13:30:14;16.48;61.82
69436;SHT31;56625;54.322;18.582;2023-05-20T13:32:42;16.49;61.29
69436;SHT31;56625;54.322;18.582;2023-05-20T13:35:10;16.52;61.58
69436;SHT31;56625;54.322;18.582;2023-05-20T13:37:39;16.54;61.02
69436;SHT31;56625;54.322;18.582;2023-05-20T13:40:07;16.57;61.37
69436;SHT31;56625;54.322;18.582;2023-05-20T13:42:36;16.63;61.10
69436;SHT31;56625;54.322;18.582;2023-05-20T13:45:04;16.67;60.91
69436;SHT31;56625;54.322;18.582;2023-05-20T13:47:34;16.78;60.86
69436;SHT31;56625;54.322;18.582;2023-05-20T13:50:02;16.92;60.54
69436;SHT31;56625;54.322;18.582;2023-05-20T13:52:31;17.02;59.90
69436;SHT31;56625;54.322;18.582;2023-05-20T13:54:58;17.07;59.67
69436;SHT31;56625;54.322;18.582;2023-05-20T13:57:26;17.14;59.68
69436;SHT31;56625;54.322;18.582;2023-05-20T13:59:54;17.21;59.02
69436;SHT31;56625;54.322;18.582;2023-05-20T14:02:22;17.23;58.88
69436;SHT31;56625;54.322;18.582;2023-05-20T14:04:50;17.19;58.58
69436;SHT31;56625;54.322;18.582;2023-05-20T14:07:18;17.24;58.95
69436;SHT31;56625;54.322;18.582;2023-05-20T14:09:46;17.32;58.53
69436;SHT31;56625;54.322;18.582;2023-05-20T14:12:14;17.28;58.02
69436;SHT31;56625;54.322;18.582;2023-05-20T14:14:42;17.30;58.31
69436;SHT31;56625;54.322;18.582;2023-05-20T14:17:10;17.40;58.67
69436;SHT31;56625;54.322;18.582;2023-05-20T14:19:37;17.54;58.66
69436;SHT31;56625;54.322;18.582;2023-05-20T14:22:06;17.65;57.52
69436;SHT31;56625;54.322;18.582;2023-05-20T14:24:33;17.72;57.41
69436;SHT31;56625;54.322;18.582;2023-05-20T14:27:01;17.81;57.17
69436;SHT31;56625;54.322;18.582;2023-05-20T14:29:29;17.92;56.58
69436;SHT31;56625;54.322;18.582;2023-05-20T14:31:57;18.04;56.07
69436;SHT31;56625;54.322;18.582;2023-05-20T14:34:28;18.27;56.45
69436;SHT31;56625;54.322;18.582;2023-05-20T14:36:56;18.47;55.43
69436;SHT31;56625;54.322;18.582;2023-05-20T14:39:23;18.73;55.77
69436;SHT31;56625;54.322;18.582;2023-05-20T14:41:51;19.00;54.42
69436;SHT31;56625;54.322;18.582;2023-05-20T14:44:19;19.07;54.03
69436;SHT31;56625;54.322;18.582;2023-05-20T14:46:47;19.04;53.36
69436;SHT31;56625;54.322;18.582;2023-05-20T14:49:15;18.94;53.67
69436;SHT31;56625;54.322;18.582;2023-05-20T14:51:43;18.93;54.24
69436;SHT31;56625;54.322;18.582;2023-05-20T14:54:11;18.94;53.68
69436;SHT31;56625;54.322;18.582;2023-05-20T14:56:41;18.90;54.37
69436;SHT31;56625;54.322;18.582;2023-05-20T14:59:09;18.95;54.59
69436;SHT31;56625;54.322;18.582;2023-05-20T15:01:37;18.94;54.53
69436;SHT31;56625;54.322;18.582;2023-05-20T15:04:05;18.88;54.47
69436;SHT31;56625;54.322;18.582;2023-05-20T15:06:33;18.78;55.15
69436;SHT31;56625;54.322;18.582;2023-05-20T15:09:03;18.68;55.47
69436;SHT31;56625;54.322;18.582;2023-05-20T15:11:32;18.51;55.22
69436;SHT31;56625;54.322;18.582;2023-05-20T15:14:00;18.35;55.17
69436;SHT31;56625;54.322;18.582;2023-05-20T15:16:28;18.16;54.79
69436;SHT31;56625;54.322;18.582;2023-05-20T15:18:56;17.99;55.96
69436;SHT31;56625;54.322;18.582;2023-05-20T15:21:24;17.83;56.18
69436;SHT31;56625;54.322;18.582;2023-05-20T15:23:52;17.69;55.90
69436;SHT31;56625;54.322;18.582;2023-05-20T15:26:20;17.59;56.50
69436;SHT31;56625;54.322;18.582;2023-05-20T15:28:48;17.65;56.14
69436;SHT31;56625;54.322;18.582;2023-05-20T15:31:16;17.70;55.58
69436;SHT31;56625;54.322;18.582;2023-05-20T15:33:44;17.75;55.75
69436;SHT31;56625;54.322;18.582;2023-05-20T15:36:12;17.90;56.00
69436;SHT31;56625;54.322;18.582;2023-05-20T15:38:40;18.06;55.83